Time;durP1;ratioP1;P1;durP2;ratioP2;P2;SDS_P1;SDS_P2;PMS_P1;PMS_P2;Temp;Humidity;BMP_temperature;BMP_pressure;BME280_temperature;BME280_humidity;BME280_pressure;Samples;Min_cycle;Max_cycle;Signal;HPM_P1;HPM_P2
2022/07/15 20:27:28;;;;;;;;;;;;;;;;;;5089734;28;20911;-77
2022/07/15 20:29:54;;;;;;;;;;;;;;;;;;5088293;28;19912;-77
2022/07/15 20:32:20;;;;;;;;;;;;;;;;;;5087008;28;19905;-77
2022/07/15 20:34:46;;;;;;;0.13;0.13;;;;;;;;;;5086807;28;19912;-77
2022/07/15 20:37:11;;;;;;;0.10;0.10;;;;;;;;;;5087214;28;20400;-78
2022/07/15 20:39:38;;;;;;;0.10;0.10;;;;;;;;;;5086705;28;20029;-78
2022/07/15 20:42:04;;;;;;;0.20;0.20;;;;;;;;;;5086596;28;20563;-79
2022/07/15 20:44:30;;;;;;;0.10;0.10;;;;;;;;;;5087047;28;20393;-77
2022/07/15 20:46:56;;;;;;;0.10;0.10;;;;;;;;;;5086314;28;20058;-78
2022/07/15 20:49:22;;;;;;;0.10;0.10;;;;;;;;;;5088835;28;20029;-78
2022/07/15 20:51:49;;;;;;;0.10;0.10;;;;;;;;;;5086943;28;20028;-78
2022/07/15 20:54:15;;;;;;;0.10;0.10;;;;;;;;;;5088054;28;20093;-78
2022/07/15 20:56:42;;;;;;;0.00;0.00;;;;;;;;;;5095678;28;20038;-77
2022/07/15 20:59:08;;;;;;;0.10;0.10;;;;;;;;;;5107165;28;20031;-77
2022/07/15 21:01:34;;;;;;;0.10;0.10;;;;;;;;;;5096122;28;20082;-77
2022/07/15 21:04:01;;;;;;;0.10;0.10;;;;;;;;;;5088701;28;20035;-78
2022/07/15 21:06:27;;;;;;;0.10;0.10;;;;;;;;;;5087746;28;20119;-79
2022/07/15 21:08:54;;;;;;;0.10;0.10;;;;;;;;;;5085844;28;20028;-81
2022/07/15 21:11:20;;;;;;;0.10;0.10;;;;;;;;;;5086931;28;20037;-80
2022/07/15 21:13:46;;;;;;;0.10;0.10;;;;;;;;;;5084875;28;20419;-81
2022/07/15 21:16:12;;;;;;;0.10;0.10;;;;;;;;;;5085366;28;20399;-79
2022/07/15 21:18:38;;;;;;;0.10;0.10;;;;;;;;;;5085580;28;20096;-80
2022/07/15 21:21:05;;;;;;;0.10;0.10;;;;;;;;;;5084641;28;20024;-79
2022/07/15 21:23:32;;;;;;;0.10;0.10;;;;;;;;;;5086482;28;20037;-80
2022/07/15 21:28:42;;;;;;;0.10;0.10;;;;;;;;;;5086758;28;20387;-79
2022/07/15 21:31:08;;;;;;;0.10;0.10;;;;;;;;;;5085768;28;20552;-79
2022/07/15 21:33:34;;;;;;;0.10;0.10;;;;;;;;;;5085390;28;20066;-77
2022/07/15 21:36:00;;;;;;;0.20;0.20;;;;;;;;;;5091420;28;20027;-79
2022/07/15 21:38:26;;;;;;;0.10;0.10;;;;;;;;;;5086616;28;20024;-79
2022/07/15 21:40:52;;;;;;;0.10;0.10;;;;;;;;;;5072269;28;20337;-78
2022/07/15 21:43:19;;;;;;;0.10;0.10;;;;;;;;;;5072139;28;20055;-81
2022/07/15 21:45:45;;;;;;;0.10;0.10;;;;;;;;;;5072402;28;20071;-81
2022/07/15 21:48:11;;;;;;;0.10;0.10;;;;;;;;;;5072794;28;20036;-83
2022/07/15 21:50:37;;;;;;;0.10;0.10;;;;;;;;;;5072767;28;20047;-83
2022/07/15 21:53:03;;;;;;;0.10;0.10;;;;;;;;;;5069751;28;20412;-83
2022/07/15 21:55:29;;;;;;;0.10;0.10;;;;;;;;;;5070823;28;20096;-82
2022/07/15 21:57:55;;;;;;;0.10;0.10;;;;;;;;;;5071519;28;20025;-83
2022/07/15 22:00:37;;;;;;;0.10;0.10;;;;;;;;;;5071802;28;20032;-83
2022/07/15 22:03:04;;;;;;;0.10;0.10;;;;;;;;;;5067918;28;20052;-83
2022/07/15 22:05:30;;;;;;;0.10;0.10;;;;;;;;;;5078359;28;20020;-83
2022/07/15 22:07:56;;;;;;;0.10;0.10;;;;;;;;;;5079298;28;20036;-78
2022/07/15 22:10:22;;;;;;;0.10;0.10;;;;;;;;;;5076366;28;20502;-83
2022/07/15 22:12:48;;;;;;;0.10;0.10;;;;;;;;;;5071204;28;20035;-82
2022/07/15 22:15:14;;;;;;;0.10;0.10;;;;;;;;;;5070915;28;20046;-83
2022/07/15 22:17:40;;;;;;;0.10;0.10;;;;;;;;;;5072768;28;20024;-83
2022/07/15 22:20:06;;;;;;;0.10;0.10;;;;;;;;;;5073192;28;20021;-83
2022/07/15 22:22:32;;;;;;;0.10;0.10;;;;;;;;;;5071416;28;20404;-79
2022/07/15 22:24:58;;;;;;;0.10;0.10;;;;;;;;;;5073136;28;20035;-83
2022/07/15 22:27:24;;;;;;;0.10;0.10;;;;;;;;;;5072588;28;20493;-83
2022/07/15 22:29:52;;;;;;;0.10;0.10;;;;;;;;;;5072490;28;20484;-81
2022/07/15 22:32:18;;;;;;;0.03;0.03;;;;;;;;;;5072929;28;20074;-83
2022/07/15 22:34:44;;;;;;;0.10;0.10;;;;;;;;;;5072565;28;20028;-82
2022/07/15 22:37:11;;;;;;;0.10;0.10;;;;;;;;;;5072873;28;20166;-83
2022/07/15 22:39:37;;;;;;;0.10;0.10;;;;;;;;;;5072627;28;20063;-82
2022/07/15 22:42:04;;;;;;;0.10;0.10;;;;;;;;;;5072574;28;20024;-82
2022/07/15 22:44:30;;;;;;;0.10;0.10;;;;;;;;;;5078301;28;20031;-83
2022/07/15 22:46:56;;;;;;;0.10;0.10;;;;;;;;;;5076761;28;20443;-81
2022/07/15 22:49:22;;;;;;;0.10;0.10;;;;;;;;;;5078343;28;20304;-82
2022/07/15 22:51:48;;;;;;;0.08;0.08;;;;;;;;;;5074276;28;20020;-81
2022/07/15 22:54:14;;;;;;;0.10;0.10;;;;;;;;;;5075929;28;20025;-82
2022/07/15 22:56:40;;;;;;;0.10;0.10;;;;;;;;;;5072071;28;20024;-82
2022/07/15 22:59:06;;;;;;;0.10;0.10;;;;;;;;;;5072111;28;20030;-82
2022/07/15 23:01:32;;;;;;;0.10;0.10;;;;;;;;;;5071783;28;20020;-78
2022/07/15 23:03:58;;;;;;;0.10;0.10;;;;;;;;;;5070965;28;20028;-84
2022/07/15 23:06:24;;;;;;;0.10;0.10;;;;;;;;;;5072183;28;20492;-82
2022/07/15 23:08:50;;;;;;;0.10;0.10;;;;;;;;;;5071981;28;20074;-83
2022/07/15 23:11:16;;;;;;;0.10;0.10;;;;;;;;;;5070738;28;20052;-82
2022/07/15 23:13:42;;;;;;;0.10;0.10;;;;;;;;;;5071856;28;20024;-84
2022/07/15 23:16:08;;;;;;;0.10;0.10;;;;;;;;;;5072106;28;20031;-81
2022/07/15 23:18:35;;;;;;;0.10;0.10;;;;;;;;;;5075046;28;20107;-79
2022/07/15 23:21:01;;;;;;;0.10;0.10;;;;;;;;;;5077839;28;20032;-79
2022/07/15 23:23:27;;;;;;;0.10;0.10;;;;;;;;;;5075603;28;20111;-78
2022/07/15 23:25:53;;;;;;;0.10;0.10;;;;;;;;;;5077875;28;20028;-79
2022/07/15 23:28:19;;;;;;;0.10;0.10;;;;;;;;;;5073915;28;20039;-79
2022/07/15 23:30:45;;;;;;;0.10;0.10;;;;;;;;;;5074496;28;20095;-79
2022/07/15 23:33:11;;;;;;;0.10;0.10;;;;;;;;;;5077474;28;20370;-80
2022/07/15 23:35:37;;;;;;;0.10;0.10;;;;;;;;;;5076110;28;20085;-79
2022/07/15 23:38:03;;;;;;;0.10;0.10;;;;;;;;;;5074825;28;20044;-79
2022/07/15 23:40:29;;;;;;;0.10;0.10;;;;;;;;;;5073972;28;20031;-79
2022/07/15 23:42:55;;;;;;;0.10;0.10;;;;;;;;;;5073179;28;20496;-79
2022/07/15 23:45:21;;;;;;;0.10;0.10;;;;;;;;;;5070440;28;20068;-79
2022/07/15 23:47:47;;;;;;;0.10;0.10;;;;;;;;;;5076020;28;20055;-80
2022/07/15 23:50:13;;;;;;;0.10;0.10;;;;;;;;;;5076119;28;20090;-80
2022/07/15 23:52:39;;;;;;;0.10;0.10;;;;;;;;;;5072023;28;20400;-81
2022/07/15 23:55:05;;;;;;;0.10;0.10;;;;;;;;;;5077006;28;20052;-79
2022/07/15 23:57:31;;;;;;;0.10;0.10;;;;;;;;;;5078297;28;20067;-81
